Arrey, New Mexico
Current Conditions -  °F | °C
As of 7:53 PM on Monday 20 Oct 2014 (Local Time) from KTCS Reporting Station
Overcast Overcast  
Wind Chill: 57°   Ceiling: 9000
Heat Index: 57°   Visibility: 10mi
Dew Point: 54°   Wind: 10mph
Humidity: 89%   Direction: 360°N
Pressure: 30.12"   Gusts: NA
Location:  32.79°N, 107.32°W
Report Text: KTCS 210153Z AUTO 36009KT 10SM FEW065 OVC090 14/12 A3012 RMK AO2 RAE12 SLP153 P0005 T01390122 TSNO
Loading
Personal Weather Stations






























Interactive Weather Map
Tropical Storm Tracking
New forecast layout! Learn more

10-Day Weather Forecast

Advertisements
Track Severe Weather on mobile